Time;durP1;ratioP1;P1;durP2;ratioP2;P2;SDS_P1;SDS_P2;PMS_P1;PMS_P2;Temp;Humidity;BMP_temperature;BMP_pressure;BME280_temperature;BME280_humidity;BME280_pressure;Samples;Min_cycle;Max_cycle;Signal;HPM_P1;HPM_P2
2023/07/04 00:01:10;;;;;;;13.95;4.70;;;16.70;99.90;;;20.14;61.15;100030.31;5022981;28;19917;-89
2023/07/04 00:03:40;;;;;;;17.25;5.03;;;16.80;99.90;;;20.32;61.49;100033.44;5038072;28;20037;-89
2023/07/04 00:06:08;;;;;;;14.45;4.95;;;16.70;99.90;;;20.02;61.83;100032.69;5024232;28;20045;-87
2023/07/04 00:08:33;;;;;;;16.08;5.18;;;16.80;99.90;;;19.94;62.29;100046.09;5030182;28;20125;-88
2023/07/04 00:11:03;;;;;;;14.65;4.70;;;16.80;99.90;;;19.92;61.38;100020.66;5028211;28;20061;-87
2023/07/04 00:13:32;;;;;;;10.77;4.28;;;16.70;99.90;;;20.25;60.32;100028.25;5036705;28;20056;-89
2023/07/04 00:15:58;;;;;;;14.45;4.50;;;16.70;99.90;;;20.08;59.53;100032.34;5024628;28;20117;-88
2023/07/04 00:18:27;;;;;;;12.48;4.80;;;16.70;99.90;;;20.28;58.77;100030.41;5022704;28;20077;-89
2023/07/04 00:20:58;;;;;;;14.88;4.38;;;16.80;99.90;;;20.32;57.38;100027.88;5056701;28;20116;-86
2023/07/04 00:23:31;;;;;;;10.15;4.10;;;16.80;99.90;;;20.21;57.25;100036.34;5025651;28;20049;-87
2023/07/04 00:25:57;;;;;;;11.95;4.25;;;17.00;99.90;;;20.57;56.63;100028.66;5022413;28;20044;-87
2023/07/04 00:28:24;;;;;;;10.25;3.45;;;17.00;99.90;;;20.34;55.26;100025.63;5019976;28;20053;-84
2023/07/04 00:30:52;;;;;;;13.87;4.20;;;17.10;99.90;;;20.47;55.19;100013.84;5018658;28;20046;-86
2023/07/04 00:33:25;;;;;;;12.40;4.57;;;17.30;99.90;;;20.59;54.95;100035.56;5017002;28;20307;-86
2023/07/04 00:36:07;;;;;;;12.20;3.88;;;17.30;99.90;;;20.70;53.71;100028.72;5024239;28;20037;-87
2023/07/04 00:38:35;;;;;;;8.43;3.63;;;17.40;99.90;;;20.38;54.09;100021.16;5034444;28;20036;-86
2023/07/04 00:41:09;;;;;;;;;;;17.40;99.90;;;20.45;54.05;100052.09;5021450;28;20026;-86
2023/07/04 00:44:07;;;;;;;9.80;3.20;;;17.40;99.90;;;20.57;53.36;100032.25;5044367;28;20027;-88
2023/07/04 00:46:53;;;;;;;12.38;3.70;;;17.40;99.90;;;20.54;53.67;100039.22;5033692;28;20045;-87
2023/07/04 00:49:29;;;;;;;8.70;3.60;;;17.40;99.90;;;20.95;53.04;100040.56;5049402;28;20105;-87
2023/07/04 00:52:23;;;;;;;10.27;3.90;;;17.40;99.90;;;20.62;53.59;100064.59;5037461;28;20040;-86
2023/07/04 00:54:57;;;;;;;14.15;3.83;;;17.40;99.90;;;20.94;53.54;100063.03;5041586;28;20461;-87
2023/07/04 00:57:37;;;;;;;10.98;3.65;;;17.30;99.90;;;20.23;55.61;100089.47;5023429;28;20500;-85
2023/07/04 01:00:23;;;;;;;12.68;3.60;;;17.30;99.90;;;19.68;61.69;100121.03;5020168;28;20068;-87
2023/07/04 01:03:13;;;;;;;10.70;3.15;;;17.10;99.90;;;19.18;72.95;100139.69;5013269;28;20133;-88
2023/07/04 01:06:06;;;;;;;12.52;3.22;;;16.80;99.90;;;18.80;83.68;100135.47;5019558;28;20064;-87
2023/07/04 01:08:42;;;;;;;11.70;3.55;;;16.40;99.90;;;18.97;84.40;100134.25;5023013;28;20108;-88
2023/07/04 01:11:18;;;;;;;11.45;3.28;;;16.30;99.90;;;18.79;87.00;100141.28;5015176;28;20143;-90
2023/07/04 01:13:45;;;;;;;10.05;2.90;;;16.20;99.90;;;19.05;87.16;100141.97;5049944;28;20088;-88
2023/07/04 01:16:16;;;;;;;14.07;3.70;;;16.10;99.90;;;18.93;89.18;100147.81;5020054;28;20076;-86
2023/07/04 01:18:48;;;;;;;12.15;3.33;;;16.10;99.90;;;19.01;87.85;100145.63;5024099;28;20037;-85
2023/07/04 01:21:21;;;;;;;9.77;2.75;;;16.00;99.90;;;18.88;90.83;100144.28;5025433;28;20493;-86
2023/07/04 01:24:17;;;;;;;11.57;2.90;;;16.00;99.90;;;18.68;90.73;100152.38;5019725;28;20505;-88
2023/07/04 01:26:49;;;;;;;10.25;2.80;;;15.90;99.90;;;18.66;90.93;100154.59;5016993;28;20026;-87
2023/07/04 01:29:18;;;;;;;7.05;2.40;;;15.80;99.90;;;18.34;92.45;100143.97;5020896;28;20481;-84
2023/07/04 01:31:45;;;;;;;7.70;2.10;;;15.80;99.90;;;18.08;92.94;100144.03;5022333;28;20099;-84
2023/07/04 01:34:13;;;;;;;8.85;2.30;;;15.80;99.90;;;18.38;92.66;100151.38;5055525;28;20061;-87
2023/07/04 01:36:42;;;;;;;6.03;2.25;;;15.70;99.90;;;18.20;91.28;100157.53;5023602;28;20058;-86
2023/07/04 01:39:15;;;;;;;6.32;1.90;;;15.70;99.90;;;17.76;94.13;100157.03;5017869;28;20223;-84
2023/07/04 01:41:45;;;;;;;6.70;1.77;;;15.60;99.90;;;18.13;92.48;100148.69;5021546;28;20418;-88
2023/07/04 01:44:14;;;;;;;6.65;1.88;;;15.60;99.90;;;18.10;93.24;100150.09;5032471;28;20090;-86
2023/07/04 01:46:39;;;;;;;7.38;2.05;;;15.60;99.90;;;18.35;90.39;100156.66;5036641;28;20041;-85
2023/07/04 01:49:06;;;;;;;4.68;1.65;;;15.50;99.90;;;17.47;92.93;100171.38;5032767;28;20033;-88
2023/07/04 01:51:36;;;;;;;3.75;1.35;;;15.40;99.90;;;17.82;93.57;100174.41;5031251;28;20038;-86
2023/07/04 01:54:05;;;;;;;6.20;1.50;;;15.30;99.90;;;17.50;94.37;100189.28;5031590;28;20022;-83
2023/07/04 01:56:34;;;;;;;4.85;1.30;;;15.20;99.90;;;17.34;96.98;100205.81;5038606;28;20057;-83
2023/07/04 01:58:59;;;;;;;3.00;1.30;;;15.10;99.90;;;16.38;100.00;100215.06;5030815;28;20045;-84
2023/07/04 02:01:25;;;;;;;3.47;1.15;;;14.90;99.90;;;15.99;100.00;100217.28;5036424;28;20049;-82
2023/07/04 02:03:52;;;;;;;2.85;1.27;;;14.30;99.90;;;15.84;100.00;100228.97;5035077;28;20040;-82
2023/07/04 02:06:18;;;;;;;4.55;1.23;;;13.80;99.90;;;15.89;100.00;100227.09;5030776;28;20058;-82
2023/07/04 02:08:45;;;;;;;2.90;1.20;;;13.40;99.90;;;15.92;100.00;100229.34;5032628;28;20094;-82
2023/07/04 02:11:12;;;;;;;3.15;1.30;;;13.40;99.90;;;16.39;100.00;100202.97;5035812;28;20489;-86
2023/07/04 02:13:39;;;;;;;3.95;1.73;;;13.20;99.90;;;16.58;100.00;100209.94;5041132;28;20065;-84
2023/07/04 02:16:05;;;;;;;4.90;1.60;;;13.20;99.90;;;16.74;100.00;100170.38;5065744;28;20038;-83
2023/07/04 02:18:31;;;;;;;3.88;1.75;;;13.10;99.90;;;16.65;100.00;100172.81;5032159;28;20313;-83
2023/07/04 02:20:57;;;;;;;4.25;1.52;;;13.00;99.90;;;16.85;100.00;100170.38;5069550;28;20045;-84
2023/07/04 02:23:22;;;;;;;4.05;1.55;;;12.90;99.90;;;16.77;100.00;100180.84;5038347;28;20042;-84
2023/07/04 02:25:48;;;;;;;5.35;1.70;;;12.80;99.90;;;16.87;100.00;100176.44;5041148;28;20093;-85
2023/07/04 02:28:15;;;;;;;3.22;1.38;;;12.80;99.90;;;16.60;100.00;100175.53;5045967;28;20034;-85
2023/07/04 02:30:53;;;;;;;6.55;1.65;;;12.70;99.90;;;16.74;100.00;100175.88;5048791;28;20040;-86
2023/07/04 02:33:18;;;;;;;3.97;1.63;;;12.70;99.90;;;16.59;100.00;100178.56;5015430;28;20042;-86
2023/07/04 02:35:47;;;;;;;4.60;1.90;;;12.70;99.90;;;16.78;100.00;100176.97;4999916;28;20174;-86
2023/07/04 02:38:14;;;;;;;3.90;1.52;;;12.70;99.90;;;16.59;100.00;100168.38;5018301;28;20056;-85
2023/07/04 02:40:48;;;;;;;4.28;1.63;;;12.70;99.90;;;16.75;100.00;100172.03;5012305;28;20044;-87
2023/07/04 02:43:15;;;;;;;5.47;1.63;;;12.70;99.90;;;16.61;100.00;100168.94;5024231;28;20037;-86
2023/07/04 02:45:43;;;;;;;4.70;1.43;;;12.80;99.90;;;16.80;100.00;100169.28;5011536;28;20037;-89
2023/07/04 02:48:13;;;;;;;3.25;1.38;;;12.80;99.90;;;16.77;100.00;100161.56;5024412;28;20498;-88
2023/07/04 02:50:38;;;;;;;5.15;1.75;;;12.80;99.90;;;16.86;100.00;100156.34;5019161;28;20080;-88
2023/07/04 02:53:04;;;;;;;3.47;1.30;;;12.80;99.90;;;17.01;100.00;100140.97;5015568;28;20095;-86
2023/07/04 02:55:30;;;;;;;4.80;1.38;;;12.80;99.90;;;17.16;100.00;100157.56;5016672;28;20404;-87
2023/07/04 02:57:57;;;;;;;4.43;1.90;;;12.80;99.90;;;16.75;100.00;100158.25;5015626;28;20037;-88
2023/07/04 03:00:23;;;;;;;4.25;1.38;;;12.90;99.90;;;16.62;100.00;100172.50;5013088;28;20046;-87
2023/07/04 03:02:49;;;;;;;3.28;1.42;;;12.90;99.90;;;16.77;100.00;100175.31;5029240;28;20068;-89
2023/07/04 03:05:16;;;;;;;5.82;1.45;;;12.90;99.90;;;16.77;100.00;100169.81;5018808;28;20038;-86
2023/07/04 03:07:42;;;;;;;4.97;1.60;;;13.00;99.90;;;16.86;100.00;100172.03;5011573;28;20520;-86
2023/07/04 03:10:11;;;;;;;4.47;1.50;;;13.00;99.90;;;16.88;100.00;100173.44;5012335;28;20374;-86
2023/07/04 03:12:37;;;;;;;2.28;1.27;;;13.00;99.90;;;16.95;100.00;100189.69;5011772;28;20378;-84
2023/07/04 03:15:06;;;;;;;3.30;1.20;;;13.00;99.90;;;16.77;100.00;100182.75;5010707;28;20434;-86
2023/07/04 03:17:36;;;;;;;6.43;1.48;;;13.10;99.90;;;16.50;100.00;100192.84;5026324;28;20030;-88
2023/07/04 03:20:09;;;;;;;4.45;1.45;;;13.20;99.90;;;16.44;100.00;100204.91;5027279;28;20034;-87
2023/07/04 03:22:41;;;;;;;2.60;1.30;;;13.30;99.90;;;16.63;100.00;100197.03;5010885;28;20040;-86
2023/07/04 03:25:08;;;;;;;4.78;1.33;;;13.30;99.90;;;16.68;100.00;100190.69;5015493;28;20069;-88
2023/07/04 03:27:38;;;;;;;5.32;1.40;;;13.40;99.90;;;16.67;100.00;100183.53;5009716;28;20025;-87
2023/07/04 03:30:09;;;;;;;2.95;1.10;;;13.50;99.90;;;16.72;100.00;100204.75;5017381;28;20028;-87
2023/07/04 03:32:35;;;;;;;3.90;1.40;;;13.50;99.90;;;16.76;100.00;100194.88;5010900;28;20137;-86
2023/07/04 03:35:01;;;;;;;4.25;1.63;;;13.60;99.90;;;16.97;100.00;100206.78;5010412;28;20463;-86
2023/07/04 03:37:33;;;;;;;4.22;1.60;;;13.60;99.90;;;16.99;100.00;100210.16;5023355;28;20037;-81
2023/07/04 03:40:00;;;;;;;3.17;1.58;;;13.60;99.90;;;16.77;100.00;100219.41;5011821;28;20124;-81
2023/07/04 03:42:26;;;;;;;4.80;1.83;;;13.40;99.90;;;16.68;100.00;100221.00;5011622;28;20117;-83
2023/07/04 03:44:53;;;;;;;6.10;1.48;;;13.30;99.90;;;16.44;100.00;100218.66;5011281;28;20391;-82
2023/07/04 03:47:21;;;;;;;6.28;1.83;;;13.20;99.90;;;16.15;100.00;100219.03;5013720;28;20109;-82
2023/07/04 03:49:47;;;;;;;6.65;2.03;;;13.00;99.90;;;16.14;100.00;100214.63;5019209;28;20074;-80
2023/07/04 03:52:13;;;;;;;6.25;1.95;;;12.80;99.90;;;16.00;100.00;100210.69;5013425;28;20061;-80
2023/07/04 03:54:40;;;;;;;4.20;1.88;;;12.80;99.90;;;15.99;100.00;100209.03;5010894;28;20525;-79
2023/07/04 03:57:05;;;;;;;4.57;1.88;;;12.70;99.90;;;15.97;100.00;100198.28;5014496;28;20088;-81
2023/07/04 03:59:31;;;;;;;7.40;1.88;;;12.60;99.90;;;15.63;100.00;100196.59;5023506;28;20088;-79
2023/07/04 04:01:57;;;;;;;6.10;2.08;;;12.60;99.90;;;15.91;100.00;100215.84;5015621;28;20359;-79
2023/07/04 04:04:22;;;;;;;6.95;2.35;;;12.60;99.90;;;15.92;100.00;100221.09;5018948;28;20073;-80
2023/07/04 04:06:49;;;;;;;6.60;2.00;;;12.60;99.90;;;15.91;100.00;100211.19;5018728;28;20062;-81
2023/07/04 04:09:15;;;;;;;6.63;2.22;;;12.50;99.90;;;15.73;100.00;100217.06;5023473;28;20120;-81
2023/07/04 04:11:41;;;;;;;7.00;2.47;;;12.50;99.90;;;15.75;100.00;100220.38;5017965;28;20389;-80
2023/07/04 04:14:08;;;;;;;3.38;1.92;;;12.50;99.90;;;15.82;100.00;100220.97;5014956;28;20121;-80
2023/07/04 04:16:33;;;;;;;7.13;2.50;;;12.50;99.90;;;15.89;100.00;100231.78;5023909;28;20065;-79
2023/07/04 04:19:01;;;;;;;7.78;2.40;;;12.50;99.90;;;15.86;100.00;100224.84;5016114;28;20045;-80
2023/07/04 04:21:27;;;;;;;6.38;2.05;;;12.40;99.90;;;15.64;100.00;100230.44;5014928;28;20041;-79
2023/07/04 04:23:53;;;;;;;7.82;2.30;;;12.50;99.90;;;15.69;100.00;100227.72;5013794;28;20046;-79
2023/07/04 04:26:21;;;;;;;6.35;2.30;;;12.50;99.90;;;15.83;100.00;100233.63;5014754;28;20473;-80
2023/07/04 04:28:47;;;;;;;8.77;2.70;;;12.50;99.90;;;15.96;100.00;100216.72;5014035;28;20133;-80
2023/07/04 04:31:14;;;;;;;5.20;2.05;;;12.60;99.90;;;16.13;100.00;100232.22;5013918;28;20049;-80
2023/07/04 04:33:41;;;;;;;5.13;1.75;;;12.60;99.90;;;15.87;100.00;100215.50;5013961;28;20042;-80
2023/07/04 04:36:07;;;;;;;6.50;1.90;;;12.60;99.90;;;16.04;100.00;100233.81;5015921;28;20088;-80
2023/07/04 04:38:32;;;;;;;7.95;2.75;;;12.70;99.90;;;16.27;100.00;100227.09;5014176;28;20038;-80
2023/07/04 04:41:04;;;;;;;9.50;2.10;;;12.80;99.90;;;16.38;100.00;100225.25;5017285;28;20030;-79
2023/07/04 04:43:32;;;;;;;6.40;1.80;;;12.80;99.90;;;16.29;100.00;100229.59;5014426;28;20127;-82
2023/07/04 04:45:59;;;;;;;5.10;2.20;;;12.90;99.90;;;16.68;100.00;100243.03;5013877;28;20437;-84
2023/07/04 04:48:29;;;;;;;4.70;1.90;;;13.00;99.90;;;16.45;100.00;100239.63;5013881;28;20037;-81
2023/07/04 04:50:59;;;;;;;7.88;1.80;;;13.10;99.90;;;16.45;100.00;100236.88;5014412;28;20054;-79
2023/07/04 04:53:26;;;;;;;5.75;1.73;;;13.20;99.90;;;16.80;100.00;100246.41;5013753;28;20580;-79
2023/07/04 04:55:52;;;;;;;6.13;1.52;;;13.20;99.90;;;16.43;100.00;100240.97;5013394;28;20049;-79
2023/07/04 04:58:18;;;;;;;6.15;1.58;;;13.20;99.90;;;16.95;100.00;100247.53;5013519;28;20037;-83
2023/07/04 05:00:45;;;;;;;5.47;1.50;;;13.40;99.90;;;16.92;100.00;100229.66;5013993;28;20498;-84
2023/07/04 05:03:13;;;;;;;6.50;1.42;;;13.60;99.90;;;17.29;100.00;100238.88;5014545;28;20101;-83
2023/07/04 05:05:39;;;;;;;4.18;1.48;;;13.80;99.90;;;17.62;100.00;100247.75;5019910;28;20065;-82
2023/07/04 05:08:04;;;;;;;5.70;1.30;;;14.00;99.90;;;17.44;100.00;100231.75;5016508;28;20450;-81
2023/07/04 05:10:30;;;;;;;8.07;1.70;;;14.20;99.90;;;17.89;100.00;100251.34;5014285;28;20210;-82
2023/07/04 05:12:57;;;;;;;7.88;2.35;;;14.40;99.90;;;17.87;100.00;100246.13;5015098;28;20101;-81
2023/07/04 05:15:24;;;;;;;5.13;1.20;;;14.60;99.90;;;18.07;100.00;100239.81;5013209;28;20042;-82
2023/07/04 05:17:50;;;;;;;5.50;1.23;;;14.80;99.90;;;18.03;100.00;100254.41;5014952;28;20041;-86
2023/07/04 05:20:22;;;;;;;4.40;1.00;;;14.90;99.90;;;18.26;100.00;100244.75;5022482;28;20044;-83
2023/07/04 05:22:48;;;;;;;4.57;1.35;;;15.00;99.90;;;18.49;99.33;100248.84;5056699;28;20044;-87
2023/07/04 05:25:14;;;;;;;6.07;1.35;;;15.20;99.90;;;18.59;95.24;100250.75;5021836;28;20026;-85
2023/07/04 05:27:41;;;;;;;5.75;1.13;;;15.30;99.90;;;18.23;97.31;100253.59;5032533;28;20076;-86
2023/07/04 05:30:09;;;;;;;4.28;1.20;;;15.30;99.90;;;18.22;96.44;100252.75;5033050;28;20065;-86
2023/07/04 05:32:34;;;;;;;3.88;1.25;;;15.30;99.90;;;18.35;98.29;100262.41;5028987;28;20061;-85
2023/07/04 05:35:00;;;;;;;7.75;1.67;;;15.40;99.90;;;18.58;95.06;100249.09;5026804;28;20037;-87
2023/07/04 05:37:26;;;;;;;7.22;1.50;;;15.50;99.90;;;18.87;93.97;100247.63;5028822;28;20073;-85
2023/07/04 05:39:52;;;;;;;8.50;1.83;;;15.60;99.90;;;18.99;92.85;100266.69;5023430;28;20049;-88
2023/07/04 05:42:18;;;;;;;4.22;1.50;;;15.60;99.90;;;19.12;92.15;100271.59;5035396;28;20099;-89
2023/07/04 05:44:44;;;;;;;5.65;1.50;;;15.70;99.90;;;19.23;93.09;100266.84;5048752;28;20053;-88
2023/07/04 05:47:09;;;;;;;4.47;1.30;;;15.80;99.90;;;18.93;95.19;100272.19;5024801;28;20049;-84
2023/07/04 05:49:35;;;;;;;4.97;1.40;;;15.80;99.90;;;19.03;94.48;100270.53;5011866;28;20042;-82
2023/07/04 05:52:01;;;;;;;3.47;1.25;;;15.80;99.90;;;18.89;95.31;100268.34;5013322;28;20033;-83
2023/07/04 05:54:27;;;;;;;5.78;1.50;;;15.80;99.90;;;18.62;95.38;100279.75;5013374;28;20135;-86
2023/07/04 05:56:55;;;;;;;4.00;1.50;;;15.70;99.90;;;19.01;97.40;100276.34;5013185;28;20034;-85
2023/07/04 05:59:21;;;;;;;5.00;1.80;;;15.80;99.90;;;19.24;97.57;100277.63;5012778;28;20037;-83
2023/07/04 06:01:50;;;;;;;4.40;1.80;;;15.90;99.90;;;19.10;96.88;100285.72;5012914;28;20418;-87
2023/07/04 06:04:17;;;;;;;8.95;1.95;;;15.90;99.90;;;19.04;97.43;100283.25;5017335;28;20056;-84
2023/07/04 06:06:50;;;;;;;5.43;1.55;;;15.90;99.90;;;19.13;94.06;100287.06;5026862;28;20049;-86
2023/07/04 06:09:17;;;;;;;4.55;1.33;;;16.00;99.90;;;18.90;96.83;100281.03;5023882;28;20036;-82
2023/07/04 06:11:46;;;;;;;9.40;1.80;;;15.90;99.90;;;19.09;97.27;100288.75;5026132;28;20034;-82
2023/07/04 06:14:23;;;;;;;5.05;1.33;;;15.90;99.90;;;19.01;97.70;100294.88;5024461;28;20042;-81
2023/07/04 06:16:49;;;;;;;5.45;2.10;;;15.90;99.90;;;19.26;94.68;100269.88;5016752;28;20244;-83
2023/07/04 06:19:14;;;;;;;4.82;1.70;;;16.10;99.90;;;19.24;94.23;100287.84;5016026;28;20068;-83
2023/07/04 06:21:40;;;;;;;6.22;1.55;;;16.30;99.90;;;19.15;97.02;100290.38;5012043;28;20069;-84
2023/07/04 06:24:06;;;;;;;6.32;1.83;;;16.20;99.90;;;19.54;94.61;100286.03;5012664;28;20038;-82
2023/07/04 06:26:35;;;;;;;5.70;1.80;;;16.40;99.90;;;19.45;95.00;100290.50;5012877;28;20041;-81
2023/07/04 06:29:33;;;;;;;11.27;2.55;;;16.40;99.90;;;19.45;96.42;100290.50;5010777;28;20504;-81
2023/07/04 06:31:59;;;;;;;7.97;2.10;;;16.40;99.90;;;19.66;94.13;100296.75;5016985;28;20049;-79
2023/07/04 06:35:06;;;;;;;5.20;1.70;;;16.40;99.90;;;19.46;96.94;100306.00;5010177;28;20573;-80
2023/07/04 06:38:08;;;;;;;7.30;1.90;;;16.30;99.90;;;19.28;98.60;100283.41;5012258;28;20551;-82
2023/07/04 06:40:34;;;;;;;7.60;2.10;;;16.20;99.90;;;19.47;94.44;100311.22;5010480;28;20620;-82
2023/07/04 06:42:59;;;;;;;7.07;2.15;;;16.20;99.90;;;19.67;96.07;100318.59;5010455;28;20041;-81
2023/07/04 06:45:25;;;;;;;6.53;1.60;;;16.20;99.90;;;19.77;90.48;100305.81;5009625;28;20171;-82
2023/07/04 06:47:51;;;;;;;4.35;1.98;;;16.30;99.90;;;19.86;91.24;100312.38;5009727;28;20413;-80
2023/07/04 06:50:17;;;;;;;5.85;1.90;;;16.40;99.90;;;19.63;91.44;100309.22;5009710;28;20084;-79
2023/07/04 06:52:42;;;;;;;4.55;1.85;;;16.40;99.90;;;20.33;89.20;100307.34;5012981;28;20489;-81
2023/07/04 06:55:09;;;;;;;6.50;1.92;;;16.60;99.90;;;20.47;84.73;100307.50;5012116;28;20053;-83
2023/07/04 06:57:35;;;;;;;5.78;2.00;;;16.80;99.90;;;19.91;83.97;100319.84;5009135;28;20073;-83
2023/07/04 07:00:00;;;;;;;5.30;2.15;;;16.90;99.90;;;19.73;83.34;100318.56;5045434;28;20104;-81
2023/07/04 07:02:26;;;;;;;5.70;2.05;;;16.80;99.90;;;19.84;84.50;100331.22;5007366;28;20045;-84
2023/07/04 07:04:52;;;;;;;6.82;2.20;;;16.90;99.90;;;19.75;86.32;100327.41;5013452;28;20385;-83
2023/07/04 07:07:17;;;;;;;4.68;1.92;;;16.80;99.90;;;20.03;84.22;100325.03;5009993;28;20053;-81
2023/07/04 07:09:43;;;;;;;6.97;1.90;;;16.90;99.90;;;20.22;84.35;100331.53;5019698;28;20048;-81
2023/07/04 07:12:11;;;;;;;5.93;2.17;;;17.00;99.90;;;20.90;80.46;100317.88;5006644;28;20042;-80
2023/07/04 07:14:38;;;;;;;5.32;2.00;;;17.20;99.90;;;20.86;79.41;100321.53;5024680;28;20510;-82
2023/07/04 07:17:06;;;;;;;5.70;2.15;;;17.50;99.90;;;20.76;75.98;100319.66;5022879;28;20033;-86
2023/07/04 07:19:32;;;;;;;5.32;2.30;;;17.60;99.90;;;20.88;76.92;100328.44;5020614;28;20038;-81
2023/07/04 07:22:00;;;;;;;7.30;2.55;;;17.70;99.90;;;20.89;76.63;100324.53;5022196;28;20033;-81
2023/07/04 07:24:28;;;;;;;;;;;17.70;99.90;;;20.91;76.82;100327.84;5025658;28;20060;-80
2023/07/04 07:26:57;;;;;;;7.10;2.60;;;17.50;99.90;;;20.76;78.99;100331.56;5019518;28;19956;-81
2023/07/04 07:29:24;;;;;;;8.27;2.63;;;17.70;99.90;;;21.56;74.46;100331.19;5015878;28;20029;-81
2023/07/04 07:31:50;;;;;;;9.40;3.53;;;17.90;99.90;;;20.97;75.91;100323.88;5023826;28;20138;-81
2023/07/04 07:34:17;;;;;;;7.03;2.90;;;17.90;99.90;;;21.09;73.23;100331.78;5021862;28;20529;-81
2023/07/04 07:36:46;;;;;;;8.77;2.95;;;17.80;99.90;;;21.17;72.77;100343.34;5008837;28;20357;-81
2023/07/04 07:39:16;;;;;;;6.88;3.20;;;17.80;99.90;;;21.34;71.90;100332.59;5009202;28;20040;-82
2023/07/04 07:41:47;;;;;;;8.02;3.65;;;17.90;99.90;;;21.44;72.21;100341.91;5019124;28;20477;-81
2023/07/04 07:44:15;;;;;;;7.45;3.22;;;18.10;99.90;;;21.68;70.80;100344.66;5018144;28;20063;-83
2023/07/04 07:46:42;;;;;;;;;;;18.20;99.90;;;21.65;69.20;100342.50;5012294;28;20034;-80
2023/07/04 07:49:08;;;;;;;9.75;3.55;;;18.30;99.90;;;22.01;66.51;100347.50;5015743;28;19917;-82
2023/07/04 07:51:34;;;;;;;8.70;2.90;;;18.40;99.90;;;21.32;68.10;100354.25;5017767;28;20378;-84
2023/07/04 07:54:02;;;;;;;7.43;3.15;;;18.30;99.90;;;20.90;68.50;100341.97;5029859;28;20106;-81
2023/07/04 07:56:44;;;;;;;7.30;3.00;;;18.00;99.90;;;21.04;70.52;100351.28;5030880;28;20049;-81
2023/07/04 07:59:11;;;;;;;10.38;3.10;;;17.80;99.90;;;20.88;69.81;100355.31;5059453;28;20058;-80
2023/07/04 08:01:38;;;;;;;9.75;3.30;;;17.70;99.90;;;;;;5030067;28;20382;-82
2023/07/04 08:04:05;;;;;;;7.05;3.08;;;17.70;99.90;;;21.30;70.63;100359.28;5027908;28;20033;-81
2023/07/04 08:06:38;;;;;;;8.15;3.00;;;17.90;99.90;;;20.96;70.61;100357.47;5031242;28;20062;-79
2023/07/04 08:09:08;;;;;;;10.23;3.20;;;17.80;99.90;;;21.62;70.51;100368.84;5031688;28;20068;-79
2023/07/04 08:11:35;;;;;;;7.95;2.50;;;18.00;99.90;;;21.81;64.12;100352.22;5035376;28;20548;-78
2023/07/04 08:14:01;;;;;;;8.43;2.78;;;18.40;99.90;;;21.50;63.84;100355.41;5033070;28;20073;-83
2023/07/04 08:16:50;;;;;;;6.40;2.55;;;18.40;99.90;;;21.15;65.28;100354.75;5036794;28;20405;-82
2023/07/04 08:19:19;;;;;;;;;;;18.20;99.90;;;21.65;63.01;100350.81;5030681;28;20037;-79
2023/07/04 08:21:46;;;;;;;7.10;2.40;;;18.10;99.90;;;21.02;65.02;100355.44;5058601;28;19921;-77
2023/07/04 08:24:14;;;;;;;6.22;2.10;;;17.90;99.90;;;21.13;65.23;100360.56;5036569;28;20508;-80
2023/07/04 08:26:44;;;;;;;7.35;2.40;;;17.90;99.90;;;21.06;64.90;100367.59;5035854;28;20105;-80
2023/07/04 08:29:11;;;;;;;5.60;2.25;;;18.10;99.90;;;20.89;64.99;100374.44;5037365;28;20041;-81
2023/07/04 08:31:36;;;;;;;6.07;2.42;;;17.90;99.90;;;20.80;66.90;100370.63;5039843;28;20052;-79
2023/07/04 08:34:04;;;;;;;8.30;2.03;;;17.80;99.90;;;21.54;65.33;100366.75;5049630;28;20111;-78
2023/07/04 08:36:31;;;;;;;;;;;18.10;99.90;;;21.69;63.79;100338.81;5030553;28;20044;-79
2023/07/04 08:38:57;;;;;;;8.45;2.38;;;18.40;99.90;;;21.42;63.65;100353.31;5018656;28;19917;-81
2023/07/04 08:41:43;;;;;;;8.90;2.53;;;18.40;99.90;;;21.32;66.01;100365.34;5051260;28;20045;-80
2023/07/04 08:44:19;;;;;;;6.10;1.98;;;18.30;99.90;;;22.19;64.29;100370.03;5020738;28;20122;-79
2023/07/04 08:46:49;;;;;;;5.88;1.73;;;18.60;99.90;;;22.81;62.11;100364.25;5020796;28;20061;-78
2023/07/04 08:49:46;;;;;;;9.35;2.38;;;19.00;99.90;;;22.51;60.92;100363.66;5016561;28;20033;-79
2023/07/04 08:52:48;;;;;;;7.50;2.13;;;19.30;99.90;;;22.23;57.46;100360.75;5054313;28;20065;-82
2023/07/04 08:55:15;;;;;;;5.88;2.00;;;19.30;99.90;;;22.22;56.74;100356.34;5016988;28;20494;-80
2023/07/04 08:58:00;;;;;;;6.63;1.88;;;19.20;99.90;;;22.67;58.47;100357.84;5014247;28;20061;-80
2023/07/04 09:00:38;;;;;;;9.85;2.03;;;19.30;99.90;;;23.41;58.33;100372.84;5021598;28;20038;-83
2023/07/04 09:03:16;;;;;;;6.10;2.13;;;19.80;99.90;;;23.10;56.31;100368.72;5021225;28;20441;-83
2023/07/04 09:06:40;;;;;;;6.18;1.88;;;20.00;99.90;;;22.87;54.19;100358.59;5013888;28;20057;-84
2023/07/04 09:09:50;;;;;;;6.47;1.92;;;20.20;99.90;;;23.25;53.43;100364.00;5014037;28;20402;-85
2023/07/04 09:12:16;;;;;;;7.35;1.70;;;20.20;99.90;;;23.49;53.35;100371.28;5021220;28;20084;-85
2023/07/04 09:14:55;;;;;;;8.18;2.00;;;20.40;99.90;;;24.15;52.15;100375.69;5024851;28;20477;-85
2023/07/04 09:17:37;;;;;;;6.50;1.92;;;20.80;99.90;;;23.15;51.30;100364.97;5022410;28;20106;-87
2023/07/04 09:20:07;;;;;;;6.68;1.90;;;20.50;99.90;;;23.17;49.79;100364.69;5034041;28;20124;-86
2023/07/04 09:22:35;;;;;;;5.55;1.70;;;20.20;99.20;;;22.87;48.71;100369.72;5029154;28;20441;-86
2023/07/04 09:25:03;;;;;;;6.57;1.70;;;20.00;98.50;;;23.18;48.49;100372.72;5029260;28;20389;-84
2023/07/04 09:27:30;;;;;;;5.90;1.73;;;20.00;98.80;;;23.58;48.04;100374.16;5029704;28;20078;-86
2023/07/04 09:29:57;;;;;;;7.07;1.85;;;20.20;98.80;;;23.64;46.94;100359.84;5021449;28;20040;-89
2023/07/04 09:32:23;;;;;;;4.35;1.45;;;20.30;98.00;;;23.26;46.28;100368.41;5019123;28;20030;-91
2023/07/04 09:35:01;;;;;;;5.93;1.60;;;20.30;97.00;;;22.75;45.94;100357.13;5017621;28;20054;-85
2023/07/04 09:37:28;;;;;;;7.75;1.73;;;20.10;96.10;;;23.68;45.67;100363.63;5026750;28;20033;-82
2023/07/04 09:39:57;;;;;;;6.13;1.77;;;20.20;97.10;;;23.82;44.54;100351.63;5017771;28;20051;-82
2023/07/04 09:42:36;;;;;;;5.50;1.50;;;20.40;96.20;;;24.30;43.89;100354.97;5013673;28;20030;-82
2023/07/04 09:45:08;;;;;;;4.85;1.45;;;20.90;96.20;;;24.49;43.11;100347.25;5013608;28;20034;-81
2023/07/04 09:47:36;;;;;;;5.80;1.80;;;21.00;95.30;;;25.25;40.22;100305.59;5022995;28;20038;-82
2023/07/04 09:50:21;;;;;;;5.03;1.98;;;21.50;93.70;;;24.62;40.81;100333.53;5013128;28;20042;-80
2023/07/04 09:53:09;;;;;;;4.38;1.52;;;21.50;92.70;;;25.50;42.04;100345.09;5013571;28;20033;-83
2023/07/04 09:55:40;;;;;;;5.93;2.00;;;21.90;94.20;;;25.13;41.14;100320.97;5025877;28;20164;-80
2023/07/04 09:58:23;;;;;;;5.85;1.77;;;21.90;92.80;;;25.12;41.43;100329.69;5026044;28;20037;-81
2023/07/04 10:01:15;;;;;;;7.28;1.60;;;22.00;92.90;;;24.76;41.48;100345.47;5026521;28;20243;-82
2023/07/04 10:03:45;;;;;;;7.75;1.98;;;21.80;92.30;;;24.84;40.85;100313.19;5023042;28;20034;-83
2023/07/04 10:06:12;;;;;;;5.95;1.70;;;21.80;91.90;;;24.88;41.49;100356.00;5022868;28;20104;-79
2023/07/04 10:08:55;;;;;;;4.72;2.08;;;21.80;92.60;;;23.98;41.60;100349.28;5013533;28;20049;-82
2023/07/04 10:11:33;;;;;;;6.15;1.70;;;21.50;91.50;;;24.82;40.23;100340.56;5024847;28;20041;-83
2023/07/04 10:14:04;;;;;;;7.28;1.88;;;21.50;91.50;;;23.96;41.39;100351.56;5021199;28;20385;-85
2023/07/04 10:16:29;;;;;;;6.95;1.90;;;21.30;91.30;;;24.23;42.22;100367.41;5024089;28;20049;-84
2023/07/04 10:19:15;;;;;;;5.90;1.88;;;21.10;92.70;;;24.59;41.97;100353.69;5019535;28;20083;-84
2023/07/04 10:21:52;;;;;;;6.63;1.65;;;21.20;93.00;;;24.89;40.66;100340.91;5018973;28;20041;-87
2023/07/04 10:24:27;;;;;;;7.28;2.33;;;21.40;92.40;;;25.44;40.21;100347.16;5023286;28;20537;-84